Latest Weather Observations for Tasman Island

IDT60801

Issued at 8:05 pm EST Tuesday 30 September 2014 (issued every 30 minutes, with the page automatically refreshed every 10 minutes)

About weather observations | Map of weather stations | Latest weather observations for TAS | Other Formats
Station Details ID: 094155 Name: TASMAN ISLAND Lat: -43.24 Lon: 148.00 Height: 240.0 m
Data from the previous 72 hours. | See also: Recent months at Tasman Island
Date/Time
EST
Temp
°C
App
Temp
°C
Dew
Point
Rel
Hum
%
Delta-T
°C
Wind Press
QNH
hPa
Press
MSL
hPa
Rain
since 9 am
mm
Dir
 
Spd
km/h
Gust
km/h
Spd
kts
Gust
kts
30/08:00pm 6.8 3.3 5.3 90 0.7 N 13 43 7 23 997.5 997.6 12.6
30/07:30pm 6.4 1.0 6.3 99 0.0 W 24 48 13 26 996.8 997.0 12.6
30/07:00pm 6.2 0.0 6.1 99 0.0 SW 28 70 15 38 996.0 996.2 12.4
30/06:35pm 6.8 0.7 6.7 99 0.0 SW 28 69 15 37 995.2 995.4 12.0
30/06:30pm 7.3 2.1 7.2 99 0.0 SSW 24 69 13 37 995.2 995.4 12.0
30/06:00pm 8.3 5.4 8.2 99 0.0 W 13 33 7 18 995.3 995.5 10.0
30/05:30pm 7.9 4.9 7.8 99 0.0 SW 13 24 7 13 994.8 994.9 10.0
30/05:00pm 7.8 4.4 7.8 100 0.0 SSW 15 26 8 14 994.0 994.1 10.0
30/04:30pm 7.5 3.1 7.5 100 0.0 SSW 20 35 11 19 993.6 993.7 10.0
30/04:00pm 7.5 4.1 7.5 100 0.0 SSW 15 24 8 13 993.4 993.5 10.0
30/03:30pm 7.4 3.0 7.4 100 0.0 SSW 20 30 11 16 993.3 993.4 10.0
30/03:00pm 7.4 2.6 7.3 99 0.0 SW 22 37 12 20 993.9 994.0 8.6
30/02:30pm 7.3 0.4 7.2 99 0.0 SW 33 57 18 31 994.0 994.1 6.4
30/02:08pm 7.4 0.5 7.3 99 0.0 SSW 33 52 18 28 993.8 993.9 3.2
30/02:06pm 7.5 -0.5 7.4 99 0.0 SSW 39 52 21 28 993.5 993.6 3.2
30/02:00pm 8.4 4.8 8.3 99 0.0 S 17 26 9 14 993.6 993.7 2.8
30/01:30pm 9.2 4.5 9.1 99 0.0 S 24 33 13 18 993.6 993.7 1.2
30/01:00pm 9.3 5.9 9.2 99 0.1 SSW 17 28 9 15 994.1 994.2 1.2
30/12:30pm 9.1 4.7 8.8 98 0.1 SSW 22 33 12 18 994.5 994.6 1.2
30/12:01pm 9.2 3.1 8.1 93 0.5 SSW 30 48 16 26 994.8 994.9 0.4
30/12:00pm 9.2 2.7 8.1 93 0.5 SSW 32 48 17 26 994.8 994.9 0.4
30/11:46am 10.3 4.0 5.7 73 2.1 S 28 48 15 26 994.5 994.6 0.0
30/11:30am 14.6 9.2 6.4 58 4.0 NW 24 39 13 21 994.4 994.5 0.0
30/11:00am 13.0 7.2 7.9 71 2.6 N 28 44 15 24 994.9 995.1 0.0
30/10:30am 13.3 7.4 7.3 67 3.0 N 28 48 15 26 995.3 995.5 0.0
30/10:19am 13.4 7.5 7.6 68 2.9 N 28 46 15 25 995.5 995.7 0.0
30/10:00am 13.0 7.5 7.5 69 2.7 N 26 39 14 21 996.0 996.2 0.0
30/09:33am 13.4 7.0 7.0 65 3.1 N 30 48 16 26 996.6 996.8 0.0
30/09:30am 13.9 7.1 7.0 63 3.4 N 32 48 17 26 996.5 996.7 0.0
30/09:10am 13.9 7.4 6.3 60 3.7 NNE 30 48 16 26 996.8 997.0 0.0
30/09:00am 13.8 8.0 6.2 60 3.7 NNE 26 41 14 22 996.8 997.0 0.0
30/08:30am 13.0 6.6 5.2 59 3.7 N 28 37 15 20 997.6 997.7 0.0
30/08:00am 12.5 5.7 5.0 60 3.5 NNW 30 48 16 26 997.7 997.8 0.0
30/07:30am 12.3 5.1 5.0 61 3.4 NNW 32 54 17 29 997.7 997.8 0.0
30/07:06am 11.9 4.3 6.0 67 2.8 NNW 35 61 19 33 997.7 997.8 0.0
30/07:00am 11.7 8.0 6.2 69 2.6 N 15 28 8 15 997.6 997.7 0.0
30/06:47am 11.4 5.2 6.3 71 2.4 NNW 28 56 15 30 998.0 998.1 0.0
30/06:30am 11.3 5.5 6.2 71 2.4 NW 26 44 14 24 998.4 998.6 0.0
30/06:00am 11.5 5.3 6.0 69 2.6 N 28 56 15 30 998.4 998.6 0.0
30/05:43am 11.6 4.5 5.5 66 2.9 N 32 54 17 29 998.7 998.9 0.0
30/05:30am 11.8 8.9 4.5 61 3.4 N 9 35 5 19 998.9 999.1 0.0
30/05:00am 11.7 6.6 5.8 67 2.8 N 22 37 12 20 998.9 999.1 0.0
30/04:32am 11.6 5.2 5.0 64 3.1 NNW 28 46 15 25 999.2 999.4 0.0
30/04:30am 11.3 5.3 5.2 66 2.8 N 26 43 14 23 999.2 999.4 0.0
30/04:00am 11.7 7.0 5.1 64 3.1 NW 19 30 10 16 999.7 999.9 0.0
30/03:30am 12.4 5.4 3.9 56 3.9 NW 30 54 16 29 1000.0 1000.2 0.0
30/03:08am 12.2 5.2 4.2 58 3.7 NW 30 52 16 28 1000.3 1000.5 0.0
30/03:00am 12.2 6.0 4.2 58 3.7 NW 26 37 14 20 1000.4 1000.6 0.0
30/02:30am 12.3 5.0 4.3 58 3.7 NW 32 61 17 33 1000.7 1000.9 0.0
30/02:00am 12.0 4.6 4.2 59 3.6 NNW 32 50 17 27 1001.1 1001.3 0.0
30/01:45am 11.9 4.6 4.4 60 3.4 NNW 32 52 17 28 1001.2 1001.4 0.0
30/01:30am 11.9 4.4 4.6 61 3.4 NNW 33 48 18 26 1001.5 1001.6 0.0
30/01:00am 12.0 3.0 4.5 60 3.5 NW 41 54 22 29 1001.6 1001.7 0.0
30/12:30am 11.3 4.3 4.1 61 3.3 NNW 30 41 16 22 1002.1 1002.3 0.0
30/12:00am 11.2 5.7 4.0 61 3.3 NNW 22 33 12 18 1002.5 1002.7 0.0
 
Date/Time
EST
Temp
°C
App
Temp
°C
Dew
Point
Rel
Hum
%
Delta-T
°C
Wind Press
QNH
hPa
Press
MSL
hPa
Rain
since 9 am
mm
Dir
 
Spd
km/h
Gust
km/h
Spd
kts
Gust
kts
29/11:30pm 11.4 5.5 3.7 59 3.5 NNW 24 39 13 21 1002.5 1002.7 0.0
29/11:02pm 11.8 3.3 3.3 56 3.8 NW 37 56 20 30 1002.6 1002.8 0.0
29/11:00pm 11.9 3.0 3.2 55 3.9 NW 39 56 21 30 1002.6 1002.8 0.0
29/10:30pm 11.9 2.6 2.9 54 4.0 NW 41 67 22 36 1002.4 1002.6 0.0
29/10:00pm 12.0 1.7 2.7 53 4.1 NW 46 65 25 35 1002.9 1003.1 0.0
29/09:32pm 11.7 4.7 2.2 52 4.1 NNW 28 48 15 26 1003.2 1003.4 0.0
29/09:30pm 11.8 4.1 2.3 52 4.2 NNW 32 48 17 26 1003.1 1003.3 0.0
29/09:04pm 12.1 3.0 1.7 49 4.5 NW 39 61 21 33 1002.9 1003.1 0.0
29/09:00pm 12.2 3.8 1.8 49 4.5 NW 35 54 19 29 1003.0 1003.2 0.0
29/08:35pm 12.5 3.8 1.8 48 4.7 NW 37 57 20 31 1003.0 1003.2 0.0
29/08:33pm 12.6 2.6 1.9 48 4.7 WNW 44 57 24 31 1002.8 1003.0 0.0
29/08:32pm 12.5 4.1 1.8 48 4.7 NNW 35 57 19 31 1003.0 1003.2 0.0
29/08:30pm 12.5 3.8 1.8 48 4.7 N 37 52 20 28 1003.0 1003.2 0.0
29/08:06pm 13.2 6.2 2.1 47 4.9 NW 28 46 15 25 1003.0 1003.2 0.0
29/08:00pm 13.3 5.9 1.9 46 5.0 NW 30 46 16 25 1003.1 1003.3 0.0
29/07:37pm 13.5 5.5 1.8 45 5.1 NW 33 54 18 29 1002.9 1003.1 0.0
29/07:30pm 13.6 6.2 1.9 45 5.2 NW 30 48 16 26 1003.0 1003.2 0.0
29/07:17pm 13.7 6.7 2.0 45 5.2 NW 28 48 15 26 1003.0 1003.2 0.0
29/07:00pm 13.8 9.0 2.4 46 5.1 NW 17 26 9 14 1002.8 1003.0 0.0
29/06:30pm 14.5 6.6 2.4 44 5.4 NW 33 52 18 28 1002.6 1002.8 0.0
29/06:23pm 14.5 6.8 2.1 43 5.5 NW 32 50 17 27 1002.5 1002.7 0.0
29/06:00pm 14.7 6.0 1.9 42 5.7 NW 37 54 20 29 1002.1 1002.3 0.0
29/05:40pm 14.8 7.0 1.7 41 5.8 NW 32 50 17 27 1002.3 1002.5 0.0
29/05:30pm 14.6 6.8 1.5 41 5.8 NW 32 50 17 27 1002.2 1002.4 0.0
29/05:28pm 14.6 7.1 1.5 41 5.8 NW 30 50 16 27 1002.2 1002.4 0.0
29/05:00pm 14.6 8.3 1.5 41 5.8 NNW 24 41 13 22 1002.3 1002.5 0.0
29/04:30pm 14.8 7.4 1.7 41 5.8 NNW 30 50 16 27 1002.4 1002.6 0.0
29/04:03pm 15.5 7.4 0.9 37 6.4 NW 33 54 18 29 1002.5 1002.7 0.0
29/04:00pm 15.6 6.7 0.6 36 6.6 NW 37 54 20 29 1002.5 1002.7 0.0
29/03:35pm 15.2 7.3 1.0 38 6.2 NW 32 52 17 28 1002.4 1002.6 0.0
29/03:30pm 15.2 7.0 0.6 37 6.3 NW 33 46 18 25 1002.5 1002.7 0.0
29/03:00pm 15.0 6.4 0.1 36 6.4 NW 35 57 19 31 1002.6 1002.8 0.0
29/02:42pm 15.3 7.7 0.7 37 6.4 NW 30 50 16 27 1002.7 1002.9 0.0
29/02:30pm 15.8 9.9 1.9 39 6.2 NW 22 39 12 21 1002.8 1003.0 0.0
29/02:00pm 15.6 11.9 2.1 40 6.1 WNW 11 22 6 12 1003.2 1003.4 0.0
29/01:30pm 15.3 11.6 2.1 41 5.9 W 11 24 6 13 1003.4 1003.6 0.0
29/01:00pm 14.2 10.9 2.5 45 5.3 WSW 9 24 5 13 1003.5 1003.7 0.0
29/12:51pm 14.7 6.9 1.9 42 5.7 NW 32 52 17 28 1003.4 1003.6 0.0
29/12:35pm 15.1 6.8 2.0 41 5.9 NW 35 46 19 25 1003.2 1003.4 0.0
29/12:30pm 14.6 11.4 2.8 45 5.3 WNW 9 20 5 11 1003.3 1003.5 0.0
29/12:00pm 14.1 10.6 1.4 42 5.6 WSW 9 28 5 15 1003.2 1003.4 0.0
29/11:30am 14.3 11.3 1.9 43 5.5 NNW 7 26 4 14 1002.8 1003.0 0.0
29/11:00am 12.9 9.3 0.6 43 5.3 WSW 9 39 5 21 1002.7 1002.9 0.0
29/10:30am 12.8 9.5 2.4 49 4.6 WNW 9 35 5 19 1003.3 1003.5 0.0
29/10:04am 11.9 4.9 1.8 50 4.4 NW 28 59 15 32 1003.2 1003.4 0.0
29/10:00am 11.9 6.5 2.4 52 4.2 NW 20 46 11 25 1003.1 1003.3 0.0
29/09:30am 11.0 6.4 3.8 61 3.2 WSW 17 39 9 21 1003.1 1003.3 0.0
29/09:00am 11.5 7.7 3.8 59 3.5 W 13 54 7 29 1002.9 1003.1 0.0
29/08:30am 10.7 6.7 3.0 59 3.4 SW 13 39 7 21 1002.0 1002.2 0.0
29/08:00am 10.2 6.4 3.7 64 2.9 SW 13 41 7 22 1001.6 1001.7 0.0
29/07:30am 10.3 6.5 4.0 65 2.8 W 13 43 7 23 1001.0 1001.2 0.0
29/07:00am 9.8 6.5 4.4 69 2.4 W 11 41 6 22 1001.0 1001.2 0.0
29/06:30am 9.7 5.6 4.1 68 2.5 W 15 35 8 19 1000.4 1000.6 0.0
29/06:00am 9.5 5.7 4.1 69 2.4 W 13 39 7 21 999.6 999.8 0.0
29/05:30am 9.4 6.1 4.4 71 2.2 SSE 11 32 6 17 998.6 998.8 0.0
29/05:00am 9.7 6.9 5.1 73 2.1 NNW 9 35 5 19 998.1 998.2 0.0
29/04:30am 10.3 7.1 5.3 71 2.3 E 11 39 6 21 997.6 997.7 0.0
29/04:00am 11.9 6.3 3.4 56 3.8 WNW 22 57 12 31 996.6 996.8 0.0
29/03:30am 12.2 2.4 2.4 51 4.3 WNW 43 69 23 37 996.1 996.3 0.0
29/03:00am 12.3 2.4 1.6 48 4.7 NW 43 67 23 36 994.7 994.8 0.0
29/02:30am 12.4 0.1 2.0 49 4.5 WNW 56 78 30 42 994.3 994.4 0.0
29/02:00am 12.9 2.0 1.3 45 5.1 WNW 48 67 26 36 994.9 995.1 0.0
29/01:48am 13.0 2.9 1.7 46 4.9 NW 44 70 24 38 995.1 995.3 0.0
29/01:31am 12.2 6.3 7.3 72 2.4 WNW 28 48 15 26 995.6 995.8 0.0
29/01:30am 12.2 6.7 7.7 74 2.2 WNW 26 41 14 22 995.5 995.7 0.0
29/01:00am 11.3 8.1 9.9 91 0.7 WNW 17 28 9 15 996.1 996.3 0.0
29/12:30am 11.1 8.7 10.2 94 0.5 WNW 13 22 7 12 996.3 996.5 0.0
29/12:00am 11.4 8.7 10.3 93 0.6 WNW 15 22 8 12 996.6 996.8 0.0
 
Date/Time
EST
Temp
°C
App
Temp
°C
Dew
Point
Rel
Hum
%
Delta-T
°C
Wind Press
QNH
hPa
Press
MSL
hPa
Rain
since 9 am
mm
Dir
 
Spd
km/h
Gust
km/h
Spd
kts
Gust
kts
28/11:30pm 11.4 10.2 10.3 93 0.6 NNW 7 13 4 7 996.3 996.5 0.0
28/11:00pm 11.3 9.4 10.4 94 0.5 NE 11 17 6 9 996.7 996.9 0.0
28/10:30pm 11.4 10.9 10.9 97 0.3 SE 4 7 2 4 997.3 997.4 0.0
28/10:00pm 10.8 8.5 10.3 97 0.3 S 13 17 7 9 998.0 998.1 0.0
28/09:30pm 11.0 7.4 9.8 92 0.6 S 19 26 10 14 998.1 998.2 0.0
28/09:00pm 11.9 9.8 8.2 78 1.9 WSW 9 17 5 9 998.2 998.3 0.0
28/08:30pm 14.9 13.3 8.8 67 3.1 E 7 20 4 11 998.3 998.4 0.0
28/08:15pm 17.5 10.8 8.1 54 4.8 NNW 33 52 18 28 998.3 998.4 0.0
28/08:00pm 17.7 10.2 8.0 53 5.0 NNW 37 52 20 28 998.2 998.3 0.0
28/07:31pm 17.7 9.5 8.0 53 5.0 NNW 41 59 22 32 997.9 998.0 0.0
28/07:30pm 17.7 9.1 8.0 53 5.0 NNW 43 59 23 32 997.9 998.0 0.0
28/07:00pm 17.6 8.9 7.9 53 5.0 NNW 43 67 23 36 997.3 997.4 0.0
28/06:30pm 17.9 8.7 7.9 52 5.2 NW 46 70 25 38 997.1 997.2 0.0
28/06:00pm 18.5 7.2 7.3 48 5.8 NNW 56 80 30 43 996.2 996.4 0.0
28/05:52pm 18.5 9.6 7.0 47 5.8 NNW 43 65 23 35 996.2 996.4 0.0
28/05:51pm 18.5 9.6 7.0 47 5.8 NNW 43 59 23 32 996.0 996.2 0.0
28/05:30pm 19.2 6.5 6.7 44 6.3 NW 63 87 34 47 995.6 995.8 0.0
28/05:00pm 20.1 7.5 5.4 38 7.4 NW 61 109 33 59 995.4 995.6 0.0
28/04:30pm 20.8 8.5 5.2 36 7.8 NW 59 95 32 51 995.4 995.6 0.0
28/04:00pm 21.1 7.9 4.6 34 8.2 NW 63 93 34 50 996.0 996.2 0.0
28/03:30pm 21.5 7.5 4.1 32 8.5 NW 67 96 36 52 996.7 996.9 0.0
28/03:15pm 21.9 5.8 4.0 31 8.8 NW 78 119 42 64 996.7 996.9 0.0
28/03:00pm 22.3 8.6 3.9 30 9.1 NW 65 93 35 50 996.6 996.8 0.0
28/02:30pm 23.1 9.6 3.1 27 9.7 NW 63 96 34 52 996.7 996.9 0.0
28/02:22pm 23.1 10.9 3.6 28 9.6 NW 57 80 31 43 997.2 997.3 0.0
28/02:20pm 23.3 11.7 3.8 28 9.6 NW 54 72 29 39 997.4 997.5 0.0
28/02:07pm 23.8 7.8 2.6 25 10.3 WNW 76 100 41 54 997.5 997.6 0.0
28/02:00pm 24.0 13.1 3.3 26 10.2 NW 50 83 27 45 997.9 998.0 0.0
28/01:39pm 24.4 11.7 3.1 25 10.5 NW 59 102 32 55 997.6 997.7 0.0
28/01:30pm 24.2 12.0 3.5 26 10.2 NW 57 83 31 45 997.7 997.8 0.0
28/01:00pm 22.2 14.0 8.0 40 7.6 N 41 61 22 33 998.4 998.6 0.0
28/12:30pm 20.6 13.7 8.9 47 6.2 N 35 65 19 35 999.0 999.2 0.0
28/12:21pm 19.7 13.3 9.3 51 5.6 N 33 54 18 29 999.5 999.7 0.0
28/12:00pm 19.0 7.9 8.9 52 5.4 N 57 76 31 41 999.7 999.9 0.0
28/11:58am 18.8 7.8 9.0 53 5.2 N 57 76 31 41 999.8 1000.0 0.0
28/11:48am 18.9 6.7 8.8 52 5.3 N 63 74 34 40 1000.0 1000.2 0.0
28/11:30am 19.4 10.7 8.4 49 5.8 N 44 69 24 37 1000.3 1000.5 0.0
28/11:20am 19.8 11.0 8.2 47 6.1 N 44 76 24 41 1000.2 1000.4 0.0
28/11:00am 20.3 13.6 8.3 46 6.4 N 33 56 18 30 1000.9 1001.1 0.0
28/10:38am 20.9 13.6 7.2 41 7.1 NNE 35 57 19 31 1000.9 1001.1 0.0
28/10:30am 21.3 10.7 6.8 39 7.5 N 52 83 28 45 1001.1 1001.3 0.0
28/10:00am 20.6 9.2 6.9 41 7.1 NNW 56 80 30 43 1001.5 1001.6 0.0
28/09:30am 19.8 8.5 7.2 44 6.5 N 56 87 30 47 1001.8 1001.9 0.0
28/09:00am 19.0 6.5 7.8 48 5.8 NNW 63 104 34 56 1002.1 1002.3 0.0
28/08:37am 18.4 7.2 7.5 49 5.6 NNW 56 96 30 52 1002.1 1002.3 0.0
28/08:30am 17.1 5.9 8.3 56 4.5 NNW 57 76 31 41 1002.2 1002.4 0.0
28/08:00am 16.9 4.0 7.8 55 4.7 N 65 91 35 49 1002.1 1002.3 0.0
28/07:30am 16.4 2.8 7.9 57 4.3 NNW 69 98 37 53 1002.0 1002.2 0.0
28/07:00am 16.5 3.6 7.7 56 4.5 NNW 65 93 35 50 1002.4 1002.6 0.0
28/06:30am 15.7 4.7 8.4 62 3.7 NNW 56 85 30 46 1003.2 1003.4 0.0
28/06:00am 15.0 5.6 8.7 66 3.3 N 48 83 26 45 1003.7 1003.9 0.0
28/05:41am 14.5 7.2 8.9 69 2.9 N 37 82 20 44 1004.2 1004.4 0.0
28/05:30am 13.7 7.2 9.0 73 2.4 N 33 57 18 31 1004.5 1004.7 0.0
28/05:03am 13.2 5.2 9.1 76 2.1 N 41 61 22 33 1005.2 1005.4 0.0
28/05:00am 13.0 5.4 9.1 77 2.0 N 39 56 21 30 1005.2 1005.4 0.0
28/04:30am 13.2 4.6 8.9 75 2.2 N 44 67 24 36 1005.4 1005.7 0.0
28/04:00am 13.1 4.0 8.6 74 2.3 N 46 65 25 35 1005.2 1005.4 0.0
28/03:41am 13.7 4.6 8.3 70 2.7 N 46 67 25 36 1005.6 1005.9 0.0
28/03:30am 13.1 2.9 8.6 74 2.3 N 52 69 28 37 1005.8 1006.0 0.0
28/03:04am 12.5 1.5 8.4 76 2.1 N 56 74 30 40 1006.1 1006.3 0.0
28/03:00am 12.4 1.2 8.3 76 2.1 N 57 74 31 40 1006.2 1006.4 0.0
28/02:42am 12.4 2.9 8.3 76 2.1 N 48 70 26 38 1006.8 1007.0 0.0
28/02:30am 12.4 2.5 8.3 76 2.1 N 50 67 27 36 1007.2 1007.4 0.0
28/02:00am 12.2 1.9 8.3 77 2.0 N 52 69 28 37 1007.8 1008.0 0.0
28/01:31am 12.1 3.0 8.6 79 1.8 N 46 72 25 39 1008.2 1008.4 0.0
28/01:30am 12.1 3.0 8.6 79 1.8 N 46 61 25 33 1008.2 1008.4 0.0
28/01:00am 11.9 2.9 8.9 82 1.5 N 46 61 25 33 1009.0 1009.3 0.0
28/12:30am 11.9 2.6 9.3 84 1.3 N 48 61 26 33 1009.4 1009.7 0.0
28/12:00am 11.9 3.0 9.1 83 1.4 N 46 59 25 32 1009.5 1009.8 0.0
 
Date/Time
EST
Temp
°C
App
Temp
°C
Dew
Point
Rel
Hum
%
Delta-T
°C
Wind Press
QNH
hPa
Press
MSL
hPa
Rain
since 9 am
mm
Dir
 
Spd
km/h
Gust
km/h
Spd
kts
Gust
kts
27/11:40pm 12.7 6.1 8.6 76 2.1 N 33 54 18 29 1010.4 1010.6 0.0
27/11:30pm 12.6 6.0 8.5 76 2.1 N 33 48 18 26 1010.7 1010.9 0.0
27/11:14pm 12.8 5.8 8.3 74 2.3 N 35 56 19 30 1010.7 1010.9 0.0
27/11:00pm 13.0 6.0 8.3 73 2.4 N 35 50 19 27 1011.0 1011.2 0.0
27/10:30pm 12.9 6.4 8.8 76 2.1 N 33 41 18 22 1011.7 1011.9 0.0
27/10:00pm 13.1 6.5 8.6 74 2.3 N 33 48 18 26 1011.7 1011.9 0.0
27/09:30pm 12.2 5.5 9.8 85 1.2 N 35 41 19 22 1012.1 1012.3 0.0
27/09:00pm 11.9 4.9 9.8 87 1.1 N 37 48 20 26 1012.3 1012.5 0.0
27/08:30pm 12.2 5.8 10.6 90 0.8 N 35 44 19 24 1012.5 1012.8 0.0

Other Formats:

Comma delimited format used in spreadsheet applications
http://www.bom.gov.au/fwo/IDT60801/IDT60801.95986.axf

JavaScript Object Notation format (JSON) in row-major order
http://www.bom.gov.au/fwo/IDT60801/IDT60801.95986.json